sensor_id;sensor_type;location;lat;lon;timestamp;pressure;altitude;pressure_sealevel;temperature;humidity
4767;BME280;2397;53.576;9.746;2023-09-12T00:00:45;101246.19;;;20.49;99.43
4767;BME280;2397;53.576;9.746;2023-09-12T00:03:13;101247.19;;;20.35;100.00
4767;BME280;2397;53.576;9.746;2023-09-12T00:05:39;101251.47;;;20.23;100.00
4767;BME280;2397;53.576;9.746;2023-09-12T00:08:06;101244.69;;;20.27;100.00
4767;BME280;2397;53.576;9.746;2023-09-12T00:10:33;101254.56;;;20.20;100.00
4767;BME280;2397;53.576;9.746;2023-09-12T00:13:00;101258.50;;;20.24;100.00
4767;BME280;2397;53.576;9.746;2023-09-12T00:15:29;101261.75;;;20.13;100.00
4767;BME280;2397;53.576;9.746;2023-09-12T00:17:56;101257.56;;;20.04;100.00
4767;BME280;2397;53.576;9.746;2023-09-12T00:20:23;101252.41;;;20.09;100.00
4767;BME280;2397;53.576;9.746;2023-09-12T00:22:50;101242.81;;;20.21;100.00
4767;BME280;2397;53.576;9.746;2023-09-12T00:25:17;101247.56;;;20.19;100.00
4767;BME280;2397;53.576;9.746;2023-09-12T00:27:43;101242.19;;;20.19;100.00
4767;BME280;2397;53.576;9.746;2023-09-12T00:30:11;101234.16;;;20.26;100.00
4767;BME280;2397;53.576;9.746;2023-09-12T00:32:37;101231.09;;;20.35;100.00
4767;BME280;2397;53.576;9.746;2023-09-12T00:35:05;101236.25;;;20.24;100.00
4767;BME280;2397;53.576;9.746;2023-09-12T00:37:31;101225.97;;;20.40;99.67
4767;BME280;2397;53.576;9.746;2023-09-12T00:39:58;101213.81;;;20.44;99.21
4767;BME280;2397;53.576;9.746;2023-09-12T00:42:25;101212.78;;;20.45;97.97
4767;BME280;2397;53.576;9.746;2023-09-12T00:44:53;101222.84;;;20.43;97.99
4767;BME280;2397;53.576;9.746;2023-09-12T00:47:20;101228.81;;;20.32;98.58
4767;BME280;2397;53.576;9.746;2023-09-12T00:49:49;101222.59;;;20.25;99.42
4767;BME280;2397;53.576;9.746;2023-09-12T00:52:24;101211.47;;;20.28;100.00
4767;BME280;2397;53.576;9.746;2023-09-12T00:54:51;101207.97;;;20.21;99.74
4767;BME280;2397;53.576;9.746;2023-09-12T00:57:19;101203.03;;;20.18;100.00
4767;BME280;2397;53.576;9.746;2023-09-12T00:59:48;101192.91;;;20.14;100.00
4767;BME280;2397;53.576;9.746;2023-09-12T01:02:18;101194.41;;;20.29;100.00
4767;BME280;2397;53.576;9.746;2023-09-12T01:04:44;101190.47;;;20.45;99.27
4767;BME280;2397;53.576;9.746;2023-09-12T01:07:11;101178.94;;;20.57;98.57
4767;BME280;2397;53.576;9.746;2023-09-12T01:09:38;101176.91;;;20.59;97.58
4767;BME280;2397;53.576;9.746;2023-09-12T01:12:05;101172.97;;;20.62;96.96
4767;BME280;2397;53.576;9.746;2023-09-12T01:14:32;101167.41;;;20.63;96.63
4767;BME280;2397;53.576;9.746;2023-09-12T01:17:00;101164.31;;;20.66;96.32
4767;BME280;2397;53.576;9.746;2023-09-12T01:19:28;101150.91;;;20.73;96.08
4767;BME280;2397;53.576;9.746;2023-09-12T01:27:34;101136.03;;;20.77;95.75
4767;BME280;2397;53.576;9.746;2023-09-12T01:30:04;101120.78;;;20.77;95.14
4767;BME280;2397;53.576;9.746;2023-09-12T01:32:32;101122.00;;;20.81;94.93
4767;BME280;2397;53.576;9.746;2023-09-12T01:34:59;101113.97;;;20.81;94.85
4767;BME280;2397;53.576;9.746;2023-09-12T01:37:26;101105.91;;;20.68;95.45
4767;BME280;2397;53.576;9.746;2023-09-12T01:39:53;101124.09;;;20.66;96.08
4767;BME280;2397;53.576;9.746;2023-09-12T01:42:21;101147.81;;;20.56;96.34
4767;BME280;2397;53.576;9.746;2023-09-12T01:44:51;101156.63;;;20.31;96.95
4767;BME280;2397;53.576;9.746;2023-09-12T01:47:20;101166.50;;;20.11;99.43
4767;BME280;2397;53.576;9.746;2023-09-12T01:49:52;101169.94;;;20.04;100.00
4767;BME280;2397;53.576;9.746;2023-09-12T01:52:21;101180.91;;;20.10;100.00
4767;BME280;2397;53.576;9.746;2023-09-12T01:54:49;101196.50;;;19.93;100.00
4767;BME280;2397;53.576;9.746;2023-09-12T01:57:17;101182.56;;;20.11;100.00
4767;BME280;2397;53.576;9.746;2023-09-12T01:59:48;101190.03;;;20.22;100.00
4767;BME280;2397;53.576;9.746;2023-09-12T02:02:15;101214.28;;;20.07;100.00
4767;BME280;2397;53.576;9.746;2023-09-12T02:05:14;101188.78;;;20.11;100.00
4767;BME280;2397;53.576;9.746;2023-09-12T02:07:46;101195.38;;;20.15;100.00
4767;BME280;2397;53.576;9.746;2023-09-12T02:10:12;101200.34;;;20.18;100.00
4767;BME280;2397;53.576;9.746;2023-09-12T02:12:39;101204.00;;;20.11;100.00
4767;BME280;2397;53.576;9.746;2023-09-12T02:15:07;101205.91;;;20.23;100.00
4767;BME280;2397;53.576;9.746;2023-09-12T02:17:34;101198.94;;;20.35;100.00
4767;BME280;2397;53.576;9.746;2023-09-12T02:20:01;101202.63;;;20.34;100.00
4767;BME280;2397;53.576;9.746;2023-09-12T02:22:29;101203.25;;;20.36;100.00
4767;BME280;2397;53.576;9.746;2023-09-12T02:24:56;101213.56;;;20.26;100.00
4767;BME280;2397;53.576;9.746;2023-09-12T02:27:22;101210.22;;;20.18;100.00
4767;BME280;2397;53.576;9.746;2023-09-12T02:29:49;101224.47;;;20.18;100.00
4767;BME280;2397;53.576;9.746;2023-09-12T02:32:16;101235.88;;;19.99;100.00
4767;BME280;2397;53.576;9.746;2023-09-12T02:34:42;101225.81;;;20.08;100.00
4767;BME280;2397;53.576;9.746;2023-09-12T02:37:09;101218.06;;;20.19;100.00
4767;BME280;2397;53.576;9.746;2023-09-12T02:39:35;101213.94;;;20.17;100.00
4767;BME280;2397;53.576;9.746;2023-09-12T02:42:02;101232.09;;;20.21;100.00
4767;BME280;2397;53.576;9.746;2023-09-12T02:44:29;101231.56;;;20.04;100.00
4767;BME280;2397;53.576;9.746;2023-09-12T02:46:55;101237.78;;;20.05;100.00
4767;BME280;2397;53.576;9.746;2023-09-12T02:49:22;101250.53;;;20.03;100.00
4767;BME280;2397;53.576;9.746;2023-09-12T02:51:48;101248.41;;;19.92;100.00
4767;BME280;2397;53.576;9.746;2023-09-12T02:54:15;101236.91;;;19.91;100.00
4767;BME280;2397;53.576;9.746;2023-09-12T02:56:42;101236.06;;;19.91;100.00
4767;BME280;2397;53.576;9.746;2023-09-12T02:59:08;101237.28;;;19.88;100.00
4767;BME280;2397;53.576;9.746;2023-09-12T03:01:35;101249.22;;;19.79;100.00
4767;BME280;2397;53.576;9.746;2023-09-12T03:04:01;101248.53;;;19.71;100.00
4767;BME280;2397;53.576;9.746;2023-09-12T03:06:29;101255.34;;;19.73;100.00
4767;BME280;2397;53.576;9.746;2023-09-12T03:08:56;101247.31;;;19.73;100.00
4767;BME280;2397;53.576;9.746;2023-09-12T03:11:25;101254.47;;;19.66;100.00
4767;BME280;2397;53.576;9.746;2023-09-12T03:13:53;101249.59;;;19.76;100.00
4767;BME280;2397;53.576;9.746;2023-09-12T03:16:20;101243.00;;;19.72;100.00
4767;BME280;2397;53.576;9.746;2023-09-12T03:18:47;101233.94;;;19.80;100.00
4767;BME280;2397;53.576;9.746;2023-09-12T03:21:14;101231.47;;;19.78;100.00
4767;BME280;2397;53.576;9.746;2023-09-12T03:23:41;101217.91;;;19.86;100.00
4767;BME280;2397;53.576;9.746;2023-09-12T03:26:08;101219.59;;;19.94;100.00
4767;BME280;2397;53.576;9.746;2023-09-12T03:28:36;101227.88;;;20.06;100.00
4767;BME280;2397;53.576;9.746;2023-09-12T03:31:10;101229.44;;;19.87;100.00
4767;BME280;2397;53.576;9.746;2023-09-12T03:33:38;101225.31;;;19.84;100.00
4767;BME280;2397;53.576;9.746;2023-09-12T03:36:07;101211.16;;;19.97;100.00
4767;BME280;2397;53.576;9.746;2023-09-12T03:38:34;101208.50;;;20.03;100.00
4767;BME280;2397;53.576;9.746;2023-09-12T03:41:01;101194.50;;;20.02;100.00
4767;BME280;2397;53.576;9.746;2023-09-12T03:43:30;101195.78;;;20.12;100.00
4767;BME280;2397;53.576;9.746;2023-09-12T03:45:56;101198.81;;;20.09;100.00
4767;BME280;2397;53.576;9.746;2023-09-12T03:48:23;101200.50;;;20.10;100.00
4767;BME280;2397;53.576;9.746;2023-09-12T03:50:50;101223.34;;;20.06;100.00
4767;BME280;2397;53.576;9.746;2023-09-12T03:53:17;101220.81;;;19.85;100.00
4767;BME280;2397;53.576;9.746;2023-09-12T03:55:44;101217.47;;;19.83;100.00
4767;BME280;2397;53.576;9.746;2023-09-12T03:58:11;101212.16;;;19.89;100.00
4767;BME280;2397;53.576;9.746;2023-09-12T04:00:38;101206.38;;;19.86;100.00
4767;BME280;2397;53.576;9.746;2023-09-12T04:03:05;101209.06;;;19.86;100.00
4767;BME280;2397;53.576;9.746;2023-09-12T04:05:32;101201.00;;;19.86;100.00
4767;BME280;2397;53.576;9.746;2023-09-12T04:07:58;101208.97;;;19.73;100.00
4767;BME280;2397;53.576;9.746;2023-09-12T04:10:25;101212.03;;;19.63;100.00
4767;BME280;2397;53.576;9.746;2023-09-12T04:12:51;101211.81;;;19.65;100.00
4767;BME280;2397;53.576;9.746;2023-09-12T04:15:18;101208.25;;;19.51;100.00
4767;BME280;2397;53.576;9.746;2023-09-12T04:17:46;101221.84;;;19.50;100.00
4767;BME280;2397;53.576;9.746;2023-09-12T04:20:12;101218.09;;;19.44;100.00
4767;BME280;2397;53.576;9.746;2023-09-12T04:22:44;101210.72;;;19.46;100.00
4767;BME280;2397;53.576;9.746;2023-09-12T04:25:11;101215.91;;;19.54;100.00
4767;BME280;2397;53.576;9.746;2023-09-12T04:27:38;101219.84;;;19.58;100.00
4767;BME280;2397;53.576;9.746;2023-09-12T04:30:05;101205.84;;;19.63;100.00
4767;BME280;2397;53.576;9.746;2023-09-12T04:32:32;101213.72;;;19.71;100.00
4767;BME280;2397;53.576;9.746;2023-09-12T04:34:59;101205.91;;;19.76;100.00
4767;BME280;2397;53.576;9.746;2023-09-12T04:37:26;101211.25;;;19.76;100.00
4767;BME280;2397;53.576;9.746;2023-09-12T04:39:53;101200.50;;;19.63;100.00
4767;BME280;2397;53.576;9.746;2023-09-12T04:42:20;101207.66;;;19.56;100.00
4767;BME280;2397;53.576;9.746;2023-09-12T04:44:48;101197.97;;;19.55;100.00
4767;BME280;2397;53.576;9.746;2023-09-12T04:47:16;101179.09;;;19.63;100.00
4767;BME280;2397;53.576;9.746;2023-09-12T04:49:43;101177.47;;;19.75;100.00
4767;BME280;2397;53.576;9.746;2023-09-12T04:52:10;101184.88;;;19.73;100.00
4767;BME280;2397;53.576;9.746;2023-09-12T04:54:36;101181.19;;;19.74;100.00
4767;BME280;2397;53.576;9.746;2023-09-12T04:57:03;101192.03;;;19.66;100.00
4767;BME280;2397;53.576;9.746;2023-09-12T04:59:30;101182.72;;;19.49;100.00
4767;BME280;2397;53.576;9.746;2023-09-12T05:01:57;101190.34;;;19.52;100.00
4767;BME280;2397;53.576;9.746;2023-09-12T05:04:23;101197.94;;;19.48;100.00
4767;BME280;2397;53.576;9.746;2023-09-12T05:06:50;101209.22;;;19.44;100.00
4767;BME280;2397;53.576;9.746;2023-09-12T05:09:17;101211.47;;;19.40;100.00
4767;BME280;2397;53.576;9.746;2023-09-12T05:11:43;101203.06;;;19.43;100.00
4767;BME280;2397;53.576;9.746;2023-09-12T05:14:11;101201.06;;;19.52;100.00
4767;BME280;2397;53.576;9.746;2023-09-12T05:16:38;101190.97;;;19.54;100.00
4767;BME280;2397;53.576;9.746;2023-09-12T05:19:05;101202.13;;;19.57;100.00
4767;BME280;2397;53.576;9.746;2023-09-12T05:21:32;101202.50;;;19.54;100.00
4767;BME280;2397;53.576;9.746;2023-09-12T05:23:59;101197.19;;;19.61;100.00
4767;BME280;2397;53.576;9.746;2023-09-12T05:26:25;101193.53;;;19.68;100.00
4767;BME280;2397;53.576;9.746;2023-09-12T05:28:52;101198.03;;;19.68;100.00
4767;BME280;2397;53.576;9.746;2023-09-12T05:31:19;101201.38;;;19.70;100.00
4767;BME280;2397;53.576;9.746;2023-09-12T05:33:46;101210.00;;;19.65;100.00
4767;BME280;2397;53.576;9.746;2023-09-12T05:36:13;101217.53;;;19.55;100.00
4767;BME280;2397;53.576;9.746;2023-09-12T05:38:40;101223.09;;;19.54;100.00
4767;BME280;2397;53.576;9.746;2023-09-12T05:41:08;101229.25;;;19.48;100.00
4767;BME280;2397;53.576;9.746;2023-09-12T05:43:34;101235.94;;;19.65;100.00
4767;BME280;2397;53.576;9.746;2023-09-12T05:46:01;101238.88;;;19.70;100.00
4767;BME280;2397;53.576;9.746;2023-09-12T05:48:28;101238.88;;;19.76;100.00
4767;BME280;2397;53.576;9.746;2023-09-12T05:50:55;101235.16;;;19.77;100.00
4767;BME280;2397;53.576;9.746;2023-09-12T05:53:22;101244.06;;;19.78;100.00
4767;BME280;2397;53.576;9.746;2023-09-12T05:55:49;101247.34;;;19.80;100.00
4767;BME280;2397;53.576;9.746;2023-09-12T05:58:15;101245.88;;;19.77;100.00
4767;BME280;2397;53.576;9.746;2023-09-12T06:00:42;101243.00;;;19.79;100.00
4767;BME280;2397;53.576;9.746;2023-09-12T06:03:09;101247.38;;;19.86;100.00
4767;BME280;2397;53.576;9.746;2023-09-12T06:05:36;101238.34;;;19.94;100.00
4767;BME280;2397;53.576;9.746;2023-09-12T06:08:03;101222.94;;;20.02;100.00
4767;BME280;2397;53.576;9.746;2023-09-12T06:10:31;101222.94;;;20.02;100.00
4767;BME280;2397;53.576;9.746;2023-09-12T06:12:58;101228.22;;;19.89;100.00
4767;BME280;2397;53.576;9.746;2023-09-12T06:15:25;101229.44;;;19.87;100.00
4767;BME280;2397;53.576;9.746;2023-09-12T06:17:51;101223.63;;;19.77;100.00
4767;BME280;2397;53.576;9.746;2023-09-12T06:20:18;101235.56;;;19.74;100.00
4767;BME280;2397;53.576;9.746;2023-09-12T06:22:44;101233.50;;;19.70;100.00
4767;BME280;2397;53.576;9.746;2023-09-12T06:25:11;101240.13;;;19.74;100.00
4767;BME280;2397;53.576;9.746;2023-09-12T06:27:37;101245.00;;;19.64;100.00
4767;BME280;2397;53.576;9.746;2023-09-12T06:30:05;101247.69;;;19.64;100.00
4767;BME280;2397;53.576;9.746;2023-09-12T06:32:32;101248.28;;;19.66;100.00
4767;BME280;2397;53.576;9.746;2023-09-12T06:34:58;101250.34;;;19.64;100.00
4767;BME280;2397;53.576;9.746;2023-09-12T06:37:25;101253.22;;;19.62;100.00
4767;BME280;2397;53.576;9.746;2023-09-12T06:39:51;101263.50;;;19.59;100.00
4767;BME280;2397;53.576;9.746;2023-09-12T06:42:19;101258.41;;;19.70;100.00
4767;BME280;2397;53.576;9.746;2023-09-12T06:44:45;101260.28;;;19.70;100.00
4767;BME280;2397;53.576;9.746;2023-09-12T06:47:12;101266.38;;;19.57;100.00
4767;BME280;2397;53.576;9.746;2023-09-12T06:49:40;101266.78;;;19.54;100.00
4767;BME280;2397;53.576;9.746;2023-09-12T06:52:06;101263.09;;;19.62;100.00
4767;BME280;2397;53.576;9.746;2023-09-12T06:54:33;101255.31;;;19.67;100.00
4767;BME280;2397;53.576;9.746;2023-09-12T06:57:00;101261.72;;;19.72;100.00
4767;BME280;2397;53.576;9.746;2023-09-12T06:59:26;101254.66;;;19.58;100.00
4767;BME280;2397;53.576;9.746;2023-09-12T07:01:53;101253.63;;;19.66;100.00
4767;BME280;2397;53.576;9.746;2023-09-12T07:04:19;101263.56;;;19.72;100.00
4767;BME280;2397;53.576;9.746;2023-09-12T07:06:46;101256.63;;;19.84;100.00
4767;BME280;2397;53.576;9.746;2023-09-12T07:09:12;101255.56;;;19.78;100.00
4767;BME280;2397;53.576;9.746;2023-09-12T07:11:41;101257.03;;;19.81;100.00
4767;BME280;2397;53.576;9.746;2023-09-12T07:14:09;101260.16;;;19.91;100.00
4767;BME280;2397;53.576;9.746;2023-09-12T07:16:36;101263.22;;;19.81;100.00
4767;BME280;2397;53.576;9.746;2023-09-12T07:19:03;101265.34;;;19.92;100.00
4767;BME280;2397;53.576;9.746;2023-09-12T07:21:31;101265.31;;;19.86;100.00
4767;BME280;2397;53.576;9.746;2023-09-12T07:23:58;101269.84;;;19.92;100.00
4767;BME280;2397;53.576;9.746;2023-09-12T07:26:25;101270.31;;;20.02;100.00
4767;BME280;2397;53.576;9.746;2023-09-12T07:28:54;101263.38;;;20.14;100.00
4767;BME280;2397;53.576;9.746;2023-09-12T07:31:20;101262.69;;;19.99;100.00
4767;BME280;2397;53.576;9.746;2023-09-12T07:33:47;101254.09;;;20.10;100.00
4767;BME280;2397;53.576;9.746;2023-09-12T07:36:14;101251.41;;;20.10;100.00
4767;BME280;2397;53.576;9.746;2023-09-12T07:38:42;101246.13;;;20.30;100.00
4767;BME280;2397;53.576;9.746;2023-09-12T07:41:11;101240.84;;;20.49;100.00
4767;BME280;2397;53.576;9.746;2023-09-12T07:43:38;101229.31;;;20.68;100.00
4767;BME280;2397;53.576;9.746;2023-09-12T07:46:04;101233.22;;;20.72;100.00
4767;BME280;2397;53.576;9.746;2023-09-12T07:48:32;101232.63;;;20.70;100.00
4767;BME280;2397;53.576;9.746;2023-09-12T07:50:59;101246.88;;;20.77;100.00
4767;BME280;2397;53.576;9.746;2023-09-12T07:53:25;101235.94;;;20.85;100.00
4767;BME280;2397;53.576;9.746;2023-09-12T07:55:52;101240.22;;;20.73;100.00
4767;BME280;2397;53.576;9.746;2023-09-12T07:58:19;101250.38;;;20.71;100.00
4767;BME280;2397;53.576;9.746;2023-09-12T08:00:46;101256.13;;;20.68;100.00
4767;BME280;2397;53.576;9.746;2023-09-12T08:03:13;101253.28;;;20.83;100.00
4767;BME280;2397;53.576;9.746;2023-09-12T08:05:39;101261.53;;;20.81;100.00
4767;BME280;2397;53.576;9.746;2023-09-12T08:08:06;101273.97;;;21.08;100.00
4767;BME280;2397;53.576;9.746;2023-09-12T08:10:33;101272.66;;;20.91;100.00
4767;BME280;2397;53.576;9.746;2023-09-12T08:12:59;101278.63;;;20.80;100.00
4767;BME280;2397;53.576;9.746;2023-09-12T08:15:26;101283.78;;;20.82;100.00
4767;BME280;2397;53.576;9.746;2023-09-12T08:17:54;101291.22;;;20.73;100.00
4767;BME280;2397;53.576;9.746;2023-09-12T08:20:21;101300.28;;;20.72;100.00
4767;BME280;2397;53.576;9.746;2023-09-12T08:22:47;101298.06;;;20.82;100.00
4767;BME280;2397;53.576;9.746;2023-09-12T08:25:15;101304.25;;;20.89;100.00
4767;BME280;2397;53.576;9.746;2023-09-12T08:27:43;101292.88;;;20.87;100.00
4767;BME280;2397;53.576;9.746;2023-09-12T08:30:11;101289.22;;;21.08;100.00
4767;BME280;2397;53.576;9.746;2023-09-12T08:32:40;101298.75;;;21.10;100.00
4767;BME280;2397;53.576;9.746;2023-09-12T08:35:11;101297.91;;;21.42;100.00
4767;BME280;2397;53.576;9.746;2023-09-12T08:37:41;101301.63;;;21.48;100.00
4767;BME280;2397;53.576;9.746;2023-09-12T08:40:09;101309.06;;;21.52;100.00
4767;BME280;2397;53.576;9.746;2023-09-12T08:42:43;101307.00;;;21.35;100.00
4767;BME280;2397;53.576;9.746;2023-09-12T08:45:13;101315.66;;;21.04;100.00
4767;BME280;2397;53.576;9.746;2023-09-12T08:47:44;101307.00;;;21.22;100.00
4767;BME280;2397;53.576;9.746;2023-09-12T08:50:14;101316.28;;;21.26;100.00
4767;BME280;2397;53.576;9.746;2023-09-12T08:52:41;101320.41;;;21.15;100.00
4767;BME280;2397;53.576;9.746;2023-09-12T08:55:25;101316.28;;;21.26;100.00
4767;BME280;2397;53.576;9.746;2023-09-12T08:57:53;101309.25;;;21.38;100.00
4767;BME280;2397;53.576;9.746;2023-09-12T09:00:22;101312.34;;;21.54;100.00
4767;BME280;2397;53.576;9.746;2023-09-12T09:02:49;101315.88;;;21.55;99.21
4767;BME280;2397;53.576;9.746;2023-09-12T09:05:16;101316.50;;;21.31;99.87
4767;BME280;2397;53.576;9.746;2023-09-12T09:07:45;101318.56;;;21.22;100.00
4767;BME280;2397;53.576;9.746;2023-09-12T09:10:16;101311.13;;;21.11;100.00
4767;BME280;2397;53.576;9.746;2023-09-12T09:12:48;101313.38;;;21.34;100.00
4767;BME280;2397;53.576;9.746;2023-09-12T09:15:28;101311.94;;;21.57;99.53
4767;BME280;2397;53.576;9.746;2023-09-12T09:17:57;101314.84;;;21.43;97.17
4767;BME280;2397;53.576;9.746;2023-09-12T09:20:34;101315.66;;;21.69;98.14
4767;BME280;2397;53.576;9.746;2023-09-12T09:23:06;101316.00;;;22.05;97.31
4767;BME280;2397;53.576;9.746;2023-09-12T09:25:33;101316.00;;;22.05;95.24
4767;BME280;2397;53.576;9.746;2023-09-12T09:28:04;101316.06;;;21.79;93.77
4767;BME280;2397;53.576;9.746;2023-09-12T09:30:47;101328.47;;;21.67;94.84
4767;BME280;2397;53.576;9.746;2023-09-12T09:33:15;101318.16;;;21.77;94.31
4767;BME280;2397;53.576;9.746;2023-09-12T09:35:42;101313.94;;;22.07;93.91
4767;BME280;2397;53.576;9.746;2023-09-12T09:38:09;101316.84;;;21.99;92.50
4767;BME280;2397;53.576;9.746;2023-09-12T09:40:36;101315.56;;;22.08;92.76
4767;BME280;2397;53.576;9.746;2023-09-12T09:43:03;101325.34;;;21.96;91.18
4767;BME280;2397;53.576;9.746;2023-09-12T09:45:30;101318.25;;;22.08;89.48
4767;BME280;2397;53.576;9.746;2023-09-12T09:48:04;101320.34;;;22.06;89.04
4767;BME280;2397;53.576;9.746;2023-09-12T09:50:31;101325.94;;;21.98;88.11
4767;BME280;2397;53.576;9.746;2023-09-12T09:53:00;101328.03;;;21.96;89.49
4767;BME280;2397;53.576;9.746;2023-09-12T09:55:28;101341.44;;;22.03;89.25
4767;BME280;2397;53.576;9.746;2023-09-12T09:57:54;101349.28;;;22.04;88.76
4767;BME280;2397;53.576;9.746;2023-09-12T10:00:22;101350.34;;;21.90;89.76
4767;BME280;2397;53.576;9.746;2023-09-12T10:02:50;101355.34;;;21.80;90.04
4767;BME280;2397;53.576;9.746;2023-09-12T10:05:19;101353.91;;;21.71;90.73
4767;BME280;2397;53.576;9.746;2023-09-12T10:07:48;101351.41;;;21.83;90.96
4767;BME280;2397;53.576;9.746;2023-09-12T10:10:18;101343.75;;;21.86;90.12
4767;BME280;2397;53.576;9.746;2023-09-12T10:12:50;101353.47;;;21.94;88.78
4767;BME280;2397;53.576;9.746;2023-09-12T10:15:19;101353.25;;;21.89;88.26
4767;BME280;2397;53.576;9.746;2023-09-12T10:17:55;101358.66;;;21.69;88.85
4767;BME280;2397;53.576;9.746;2023-09-12T10:20:27;101358.00;;;21.54;89.73
4767;BME280;2397;53.576;9.746;2023-09-12T10:23:05;101360.72;;;21.74;89.85
4767;BME280;2397;53.576;9.746;2023-09-12T10:25:35;101350.19;;;21.79;90.47
4767;BME280;2397;53.576;9.746;2023-09-12T10:28:04;101346.88;;;21.64;89.89
4767;BME280;2397;53.576;9.746;2023-09-12T10:30:33;101358.44;;;21.51;90.86
4767;BME280;2397;53.576;9.746;2023-09-12T10:33:02;101349.34;;;21.39;92.35
4767;BME280;2397;53.576;9.746;2023-09-12T10:35:30;101352.44;;;21.43;93.11
4767;BME280;2397;53.576;9.746;2023-09-12T10:38:00;101349.16;;;21.47;93.10
4767;BME280;2397;53.576;9.746;2023-09-12T10:40:31;101349.75;;;21.56;92.25
4767;BME280;2397;53.576;9.746;2023-09-12T10:43:02;101348.09;;;21.68;93.13
4767;BME280;2397;53.576;9.746;2023-09-12T10:45:31;101350.16;;;21.59;92.67
4767;BME280;2397;53.576;9.746;2023-09-12T10:47:59;101355.75;;;21.58;92.71
4767;BME280;2397;53.576;9.746;2023-09-12T10:50:27;101354.09;;;21.44;93.33
4767;BME280;2397;53.576;9.746;2023-09-12T10:52:53;101350.38;;;21.38;93.95
4767;BME280;2397;53.576;9.746;2023-09-12T10:55:20;101338.41;;;21.34;93.44
4767;BME280;2397;53.576;9.746;2023-09-12T10:58:03;101340.88;;;21.29;93.88
4767;BME280;2397;53.576;9.746;2023-09-12T11:00:30;101340.06;;;21.48;94.60
4767;BME280;2397;53.576;9.746;2023-09-12T11:05:55;101343.56;;;21.42;94.05
4767;BME280;2397;53.576;9.746;2023-09-12T11:08:22;101340.88;;;21.42;94.61
4767;BME280;2397;53.576;9.746;2023-09-12T11:11:18;101335.91;;;21.39;94.38
4767;BME280;2397;53.576;9.746;2023-09-12T11:13:47;101331.78;;;21.37;93.62
4767;BME280;2397;53.576;9.746;2023-09-12T11:16:29;101322.28;;;21.41;93.55
4767;BME280;2397;53.576;9.746;2023-09-12T11:19:21;101323.09;;;21.41;94.21
4767;BME280;2397;53.576;9.746;2023-09-12T11:21:53;101321.25;;;21.48;93.74
4767;BME280;2397;53.576;9.746;2023-09-12T11:24:20;101321.66;;;21.45;93.57
4767;BME280;2397;53.576;9.746;2023-09-12T11:27:01;101317.94;;;21.53;93.24
4767;BME280;2397;53.576;9.746;2023-09-12T11:29:34;101326.00;;;21.53;94.06
4767;BME280;2397;53.576;9.746;2023-09-12T11:32:03;101318.56;;;21.35;94.20
4767;BME280;2397;53.576;9.746;2023-09-12T11:34:40;101325.19;;;21.26;95.18
4767;BME280;2397;53.576;9.746;2023-09-12T11:37:08;101326.22;;;21.25;96.02
4767;BME280;2397;53.576;9.746;2023-09-12T11:39:36;101326.81;;;21.27;97.08
4767;BME280;2397;53.576;9.746;2023-09-12T11:42:04;101325.19;;;21.26;98.63
4767;BME280;2397;53.576;9.746;2023-09-12T11:44:31;101323.09;;;21.28;98.05
4767;BME280;2397;53.576;9.746;2023-09-12T11:47:01;101328.06;;;21.25;98.44
4767;BME280;2397;53.576;9.746;2023-09-12T11:49:37;101324.13;;;21.27;98.72
4767;BME280;2397;53.576;9.746;2023-09-12T11:52:12;101330.97;;;21.10;97.88
4767;BME280;2397;53.576;9.746;2023-09-12T11:54:42;101326.81;;;21.27;98.49
4767;BME280;2397;53.576;9.746;2023-09-12T11:57:10;101325.16;;;21.39;99.26
4767;BME280;2397;53.576;9.746;2023-09-12T11:59:43;101326.59;;;21.35;100.00
4767;BME280;2397;53.576;9.746;2023-09-12T12:02:15;101323.94;;;21.35;100.00
4767;BME280;2397;53.576;9.746;2023-09-12T12:04:41;101321.25;;;21.29;100.00
4767;BME280;2397;53.576;9.746;2023-09-12T12:07:09;101325.59;;;21.23;100.00
4767;BME280;2397;53.576;9.746;2023-09-12T12:09:36;101320.63;;;21.20;100.00
4767;BME280;2397;53.576;9.746;2023-09-12T12:12:13;101321.84;;;20.98;100.00
4767;BME280;2397;53.576;9.746;2023-09-12T12:14:41;101314.63;;;20.99;100.00
4767;BME280;2397;53.576;9.746;2023-09-12T12:17:11;101316.88;;;20.95;100.00
4767;BME280;2397;53.576;9.746;2023-09-12T12:19:38;101305.75;;;21.05;100.00
4767;BME280;2397;53.576;9.746;2023-09-12T12:22:06;101306.16;;;21.15;100.00
4767;BME280;2397;53.576;9.746;2023-09-12T12:24:52;101297.28;;;21.27;100.00
4767;BME280;2397;53.576;9.746;2023-09-12T12:27:18;101295.03;;;21.31;100.00
4767;BME280;2397;53.576;9.746;2023-09-12T12:29:45;101295.84;;;21.44;100.00
4767;BME280;2397;53.576;9.746;2023-09-12T12:32:15;101299.75;;;21.48;100.00
4767;BME280;2397;53.576;9.746;2023-09-12T12:34:41;101296.25;;;21.61;100.00
4767;BME280;2397;53.576;9.746;2023-09-12T12:37:29;101287.75;;;21.70;99.14
4767;BME280;2397;53.576;9.746;2023-09-12T12:40:00;101276.59;;;21.60;98.61
4767;BME280;2397;53.576;9.746;2023-09-12T12:42:33;101278.44;;;21.66;98.72
4767;BME280;2397;53.576;9.746;2023-09-12T12:45:15;101278.44;;;21.79;97.72
4767;BME280;2397;53.576;9.746;2023-09-12T12:47:43;101276.97;;;21.96;96.51
4767;BME280;2397;53.576;9.746;2023-09-12T12:50:15;101272.66;;;22.33;93.69
4767;BME280;2397;53.576;9.746;2023-09-12T12:52:43;101274.13;;;22.97;91.02
4767;BME280;2397;53.576;9.746;2023-09-12T12:55:10;101270.50;;;23.41;87.61
4767;BME280;2397;53.576;9.746;2023-09-12T12:57:39;101269.66;;;23.41;86.66
4767;BME280;2397;53.576;9.746;2023-09-12T13:00:11;101275.81;;;23.48;85.60
4767;BME280;2397;53.576;9.746;2023-09-12T13:02:38;101269.84;;;23.64;84.05
4767;BME280;2397;53.576;9.746;2023-09-12T13:05:17;101266.22;;;24.42;84.16
4767;BME280;2397;53.576;9.746;2023-09-12T13:07:45;101249.19;;;25.12;78.52
4767;BME280;2397;53.576;9.746;2023-09-12T13:10:11;101253.34;;;25.49;73.93
4767;BME280;2397;53.576;9.746;2023-09-12T13:12:38;101251.53;;;25.08;74.63
4767;BME280;2397;53.576;9.746;2023-09-12T13:15:05;101256.50;;;24.41;76.17
4767;BME280;2397;53.576;9.746;2023-09-12T13:17:32;101269.72;;;23.77;79.97
4767;BME280;2397;53.576;9.746;2023-09-12T13:19:59;101270.88;;;23.45;81.27